Peary Spirit — C6YM3 — position and weather

sailwx.info

Track history (hours):
 
Tides and Currents Weather Stations Pressure Air Temp Water Temp Dewpoint Dewpoint Depression Visibility Wind Speed Wind Dir Waves Ship Positions

Peary Spirit

Last reported at 2014-Aug-19 18:08 UTC. Time now 2014-Aug-21 10:13 UTC.
Position N 52°27' E 002°39'.

Length 249 m; draft 9 m.

Type: Tanker. MMSI: 311027600.

Date/timePositionNaut miles runAvg speedWind from/ knotsBaromVisibWave heightAir tempDewpointWater temp
2014-Aug-19 18:08N 52°27' E 002°39'4512.3
2014-Aug-19 14:30N 51°43' E 002°31'1112.0
2014-Aug-19 13:33N 51°34' E 002°20'1312.5
2014-Aug-19 12:32N 51°24' E 002°08'1111.5
2014-Aug-19 11:33N 51°13' E 002°04'1211.9
2014-Aug-19 10:34N 51°08' E 001°47'1312.9
2014-Aug-19 09:33N 51°00' E 001°30'3913.0
2014-Aug-19 06:33N 50°29' E 000°52'1714.1
2014-Aug-19 05:20N 50°25' E 000°26'3014.3
2014-Aug-19 03:14N 50°27' W 000°21'1014.9
2014-Aug-19 02:33N 50°30' W 000°36'1414.5
2014-Aug-19 01:33N 50°38' W 000°55'1212.0
2014-Aug-19 00:34N 50°46' W 001°10'8 7.4
2014-Aug-18 23:31N 50°50' W 001°20'0 0.0
2014-Aug-18 22:31N 50°50' W 001°20'0 0.0
2014-Aug-18 21:31N 50°50' W 001°20'0 0.0
2014-Aug-18 20:34N 50°50' W 001°20'0 0.0
2014-Aug-18 19:31N 50°50' W 001°20'0 0.0
2014-Aug-18 18:31N 50°50' W 001°20'0 0.0
2014-Aug-18 17:28N 50°50' W 001°20'0 0.0
2014-Aug-18 16:33N 50°50' W 001°20'0 0.0
2014-Aug-18 15:33N 50°50' W 001°20'0 0.0
2014-Aug-18 14:33N 50°50' W 001°20'0 0.0
2014-Aug-18 13:30N 50°50' W 001°20'0 0.0
2014-Aug-18 12:31N 50°50' W 001°20'0 0.0
2014-Aug-18 11:31N 50°50' W 001°20'0 0.0
2014-Aug-18 10:31N 50°50' W 001°20'0 0.0
2014-Aug-18 09:33N 50°50' W 001°20'0 0.0
2014-Aug-18 08:34N 50°50' W 001°20'0 0.0
2014-Aug-18 07:34N 50°50' W 001°20'0 0.0
2014-Aug-18 06:34N 50°50' W 001°20'0 0.0
2014-Aug-18 05:33N 50°50' W 001°20'0 0.0
2014-Aug-18 04:31N 50°50' W 001°20'0 0.0
2014-Aug-18 03:31N 50°50' W 001°20'0 0.0
2014-Aug-18 02:31N 50°50' W 001°20'0 0.0
2014-Aug-18 01:33N 50°50' W 001°20'0 0.0
2014-Aug-18 00:34N 50°50' W 001°20'0 0.0
2014-Aug-17 18:33N 50°50' W 001°20'0 0.0
2014-Aug-17 17:33N 50°50' W 001°20'0 0.0
2014-Aug-17 16:33N 50°50' W 001°20'0 0.0
2014-Aug-17 15:33N 50°50' W 001°20'2 1.6
2014-Aug-17 14:33N 50°49' W 001°18'7 6.7
2014-Aug-17 13:33N 50°46' W 001°09'9 9.4
2014-Aug-17 12:33N 50°40' W 000°56'5 5.4
2014-Aug-17 11:33N 50°35' W 000°57'2 1.8
2014-Aug-17 10:25N 50°35' W 001°01'0 0.0
2014-Aug-17 09:31N 50°35' W 001°01'0 0.3
2014-Aug-17 08:31N 50°35' W 001°01'0 0.1
2014-Aug-17 07:31N 50°35' W 001°01'0 0.0
2014-Aug-17 06:31N 50°35' W 001°01'0 0.0
2014-Aug-17 05:31N 50°35' W 001°01'0 0.1
2014-Aug-17 04:31N 50°35' W 001°01'0 0.3
2014-Aug-17 03:31N 50°35' W 001°01'0 0.0
2014-Aug-17 02:31N 50°35' W 001°01'0 0.0
2014-Aug-17 01:31N 50°35' W 001°01'0 0.0
2014-Aug-17 00:31N 50°35' W 001°01'0 0.0
2014-Aug-16 23:31N 50°35' W 001°01'0 0.1
2014-Aug-16 22:33N 50°35' W 001°01'5 5.1
2014-Aug-16 21:33N 50°31' W 000°55'1111.0
2014-Aug-16 20:33N 50°30' W 000°38'1212.4
2014-Aug-16 19:33N 50°30' W 000°19'1412.5
2014-Aug-16 18:26N 50°33' E 000°03'1112.5
2014-Aug-16 17:33N 50°35' E 000°20'1212.4
2014-Aug-16 16:33N 50°40' E 000°38'1212.1
2014-Aug-16 15:33N 50°47' E 000°53'2311.5
2014-Aug-16 13:32N 51°02' E 001°22'1313.1
2014-Aug-16 12:34N 51°10' E 001°38'1413.6
2014-Aug-16 11:34N 51°21' E 001°50'1413.8
2014-Aug-16 10:33N 51°33' E 002°02'1313.2
2014-Aug-16 09:33N 51°42' E 002°17'44211.9
2014-Aug-14 20:33N 58°54' E 005°03'1010.3
2014-Aug-14 19:33N 59°03' E 005°11'9 9.4
2014-Aug-14 18:33N 59°07' E 005°27'9 8.6
2014-Aug-14 17:33N 59°16' E 005°30'0 0.0
2014-Aug-13 16:15N 59°16' E 005°29'0 0.0
2014-Aug-13 15:33N 59°16' E 005°29'1 0.1
2014-Aug-13 08:33N 59°16' E 005°30'4 3.6
2014-Aug-13 07:32N 59°18' E 005°36'0 0.1
2014-Aug-13 06:26N 59°18' E 005°36'0 0.1
2014-Aug-13 05:32N 59°18' E 005°36'0 0.0
2014-Aug-13 04:32N 59°18' E 005°36'0 0.0
2014-Aug-13 03:29N 59°18' E 005°36'0 0.0
2014-Aug-13 02:32N 59°18' E 005°36'0 0.0
2014-Aug-13 01:29N 59°18' E 005°36'0 0.0
2014-Aug-13 00:32N 59°18' E 005°36'0 0.0
2014-Aug-12 23:32N 59°18' E 005°36'0 0.0
2014-Aug-12 22:32N 59°18' E 005°36'0 0.0
2014-Aug-12 21:32N 59°18' E 005°36'0 0.1
2014-Aug-12 20:32N 59°18' E 005°36'0 0.1
2014-Aug-12 19:26N 59°18' E 005°36'0 0.1
2014-Aug-12 18:29N 59°18' E 005°36'0 0.0
2014-Aug-12 17:32N 59°18' E 005°36'0 0.0
2014-Aug-12 16:32N 59°18' E 005°36'0 0.0
2014-Aug-12 15:31N 59°18' E 005°36'0 0.0
2014-Aug-12 14:32N 59°18' E 005°36'0 0.2
2014-Aug-12 13:32N 59°18' E 005°37'0 0.1
2014-Aug-12 12:32N 59°18' E 005°36'0 0.0
2014-Aug-12 11:32N 59°18' E 005°36'0 0.1
2014-Aug-12 10:31N 59°18' E 005°36'0 0.0
2014-Aug-12 09:32N 59°18' E 005°36'0 0.0
2014-Aug-12 08:31N 59°18' E 005°36'0 0.1
2014-Aug-12 07:32N 59°18' E 005°36'0 0.0
2014-Aug-12 06:31N 59°18' E 005°36'0 0.1
2014-Aug-12 05:32N 59°18' E 005°36'0 0.0
2014-Aug-12 04:31N 59°18' E 005°36'0 0.0
2014-Aug-12 03:22N 59°18' E 005°36'0 0.0
2014-Aug-12 02:23N 59°18' E 005°36'0 0.0
2014-Aug-12 01:31N 59°18' E 005°36'0 0.0
2014-Aug-12 00:31N 59°18' E 005°36'0 0.1
2014-Aug-11 23:31N 59°18' E 005°36'0 0.0
2014-Aug-11 22:31N 59°18' E 005°37'0 0.1
2014-Aug-11 21:31N 59°18' E 005°36'0 0.0
2014-Aug-11 20:28N 59°18' E 005°36'0 0.0
2014-Aug-11 19:28N 59°18' E 005°36'0 0.0
2014-Aug-11 18:28N 59°18' E 005°36'0 0.0
2014-Aug-11 17:31N 59°18' E 005°36'0 0.0
2014-Aug-11 16:31N 59°18' E 005°36'0 0.1
2014-Aug-11 15:28N 59°18' E 005°36'0 0.0
2014-Aug-11 14:31N 59°18' E 005°36'0 0.0
2014-Aug-11 13:33N 59°18' E 005°36'0 0.0
2014-Aug-11 12:33N 59°18' E 005°36'0 0.1
2014-Aug-11 11:33N 59°18' E 005°36'5 5.2
2014-Aug-11 10:33N 59°13' E 005°33'3 2.8
2014-Aug-11 09:33N 59°10' E 005°32'1211.6
2014-Aug-11 08:33N 59°03' E 005°14'4 4.4
2014-Aug-11 07:33N 59°02' E 005°06'13 0.5
2014-Aug-10 05:08N 58°51' E 004°54'  
Track history (hours):
 
Tides and Currents Weather Stations Pressure Air Temp Water Temp Dewpoint Dewpoint Depression Visibility Wind Speed Wind Dir Waves Ship Positions

Peary Spirit

Last reported at 2014-Aug-19 18:08 UTC. Time now 2014-Aug-21 10:13 UTC.
Position N 52°27' E 002°39'.

Length 249 m; draft 9 m.

Type: Tanker. MMSI: 311027600.

Date/timePositionNaut miles runAvg speedWind from/ knotsBaromVisibWave heightAir tempDewpointWater temp
2014-Aug-19 18:08N 52°27' E 002°39'4512.3
2014-Aug-19 14:30N 51°43' E 002°31'1112.0
2014-Aug-19 13:33N 51°34' E 002°20'1312.5
2014-Aug-19 12:32N 51°24' E 002°08'1111.5
2014-Aug-19 11:33N 51°13' E 002°04'1211.9
2014-Aug-19 10:34N 51°08' E 001°47'1312.9
2014-Aug-19 09:33N 51°00' E 001°30'3913.0
2014-Aug-19 06:33N 50°29' E 000°52'1714.1
2014-Aug-19 05:20N 50°25' E 000°26'3014.3
2014-Aug-19 03:14N 50°27' W 000°21'1014.9
2014-Aug-19 02:33N 50°30' W 000°36'1414.5
2014-Aug-19 01:33N 50°38' W 000°55'1212.0
2014-Aug-19 00:34N 50°46' W 001°10'8 7.4
2014-Aug-18 23:31N 50°50' W 001°20'0 0.0
2014-Aug-18 22:31N 50°50' W 001°20'0 0.0
2014-Aug-18 21:31N 50°50' W 001°20'0 0.0
2014-Aug-18 20:34N 50°50' W 001°20'0 0.0
2014-Aug-18 19:31N 50°50' W 001°20'0 0.0
2014-Aug-18 18:31N 50°50' W 001°20'0 0.0
2014-Aug-18 17:28N 50°50' W 001°20'0 0.0
2014-Aug-18 16:33N 50°50' W 001°20'0 0.0
2014-Aug-18 15:33N 50°50' W 001°20'0 0.0
2014-Aug-18 14:33N 50°50' W 001°20'0 0.0
2014-Aug-18 13:30N 50°50' W 001°20'0 0.0
2014-Aug-18 12:31N 50°50' W 001°20'0 0.0
2014-Aug-18 11:31N 50°50' W 001°20'0 0.0
2014-Aug-18 10:31N 50°50' W 001°20'0 0.0
2014-Aug-18 09:33N 50°50' W 001°20'0 0.0
2014-Aug-18 08:34N 50°50' W 001°20'0 0.0
2014-Aug-18 07:34N 50°50' W 001°20'0 0.0
2014-Aug-18 06:34N 50°50' W 001°20'0 0.0
2014-Aug-18 05:33N 50°50' W 001°20'0 0.0
2014-Aug-18 04:31N 50°50' W 001°20'0 0.0
2014-Aug-18 03:31N 50°50' W 001°20'0 0.0
2014-Aug-18 02:31N 50°50' W 001°20'0 0.0
2014-Aug-18 01:33N 50°50' W 001°20'0 0.0
2014-Aug-18 00:34N 50°50' W 001°20'0 0.0
2014-Aug-17 18:33N 50°50' W 001°20'0 0.0
2014-Aug-17 17:33N 50°50' W 001°20'0 0.0
2014-Aug-17 16:33N 50°50' W 001°20'0 0.0
2014-Aug-17 15:33N 50°50' W 001°20'2 1.6
2014-Aug-17 14:33N 50°49' W 001°18'7 6.7
2014-Aug-17 13:33N 50°46' W 001°09'9 9.4
2014-Aug-17 12:33N 50°40' W 000°56'5 5.4
2014-Aug-17 11:33N 50°35' W 000°57'2 1.8
2014-Aug-17 10:25N 50°35' W 001°01'0 0.0
2014-Aug-17 09:31N 50°35' W 001°01'0 0.3
2014-Aug-17 08:31N 50°35' W 001°01'0 0.1
2014-Aug-17 07:31N 50°35' W 001°01'0 0.0
2014-Aug-17 06:31N 50°35' W 001°01'0 0.0
2014-Aug-17 05:31N 50°35' W 001°01'0 0.1
2014-Aug-17 04:31N 50°35' W 001°01'0 0.3
2014-Aug-17 03:31N 50°35' W 001°01'0 0.0
2014-Aug-17 02:31N 50°35' W 001°01'0 0.0
2014-Aug-17 01:31N 50°35' W 001°01'0 0.0
2014-Aug-17 00:31N 50°35' W 001°01'0 0.0
2014-Aug-16 23:31N 50°35' W 001°01'0 0.1
2014-Aug-16 22:33N 50°35' W 001°01'5 5.1
2014-Aug-16 21:33N 50°31' W 000°55'1111.0
2014-Aug-16 20:33N 50°30' W 000°38'1212.4
2014-Aug-16 19:33N 50°30' W 000°19'1412.5
2014-Aug-16 18:26N 50°33' E 000°03'1112.5
2014-Aug-16 17:33N 50°35' E 000°20'1212.4
2014-Aug-16 16:33N 50°40' E 000°38'1212.1
2014-Aug-16 15:33N 50°47' E 000°53'2311.5
2014-Aug-16 13:32N 51°02' E 001°22'1313.1
2014-Aug-16 12:34N 51°10' E 001°38'1413.6
2014-Aug-16 11:34N 51°21' E 001°50'1413.8
2014-Aug-16 10:33N 51°33' E 002°02'1313.2
2014-Aug-16 09:33N 51°42' E 002°17'44211.9
2014-Aug-14 20:33N 58°54' E 005°03'1010.3
2014-Aug-14 19:33N 59°03' E 005°11'9 9.4
2014-Aug-14 18:33N 59°07' E 005°27'9 8.6
2014-Aug-14 17:33N 59°16' E 005°30'0 0.0
2014-Aug-13 16:15N 59°16' E 005°29'0 0.0
2014-Aug-13 15:33N 59°16' E 005°29'1 0.1
2014-Aug-13 08:33N 59°16' E 005°30'4 3.6
2014-Aug-13 07:32N 59°18' E 005°36'0 0.1
2014-Aug-13 06:26N 59°18' E 005°36'0 0.1
2014-Aug-13 05:32N 59°18' E 005°36'0 0.0
2014-Aug-13 04:32N 59°18' E 005°36'0 0.0
2014-Aug-13 03:29N 59°18' E 005°36'0 0.0
2014-Aug-13 02:32N 59°18' E 005°36'0 0.0
2014-Aug-13 01:29N 59°18' E 005°36'0 0.0
2014-Aug-13 00:32N 59°18' E 005°36'0 0.0
2014-Aug-12 23:32N 59°18' E 005°36'0 0.0
2014-Aug-12 22:32N 59°18' E 005°36'0 0.0
2014-Aug-12 21:32N 59°18' E 005°36'0 0.1
2014-Aug-12 20:32N 59°18' E 005°36'0 0.1
2014-Aug-12 19:26N 59°18' E 005°36'0 0.1
2014-Aug-12 18:29N 59°18' E 005°36'0 0.0
2014-Aug-12 17:32N 59°18' E 005°36'0 0.0
2014-Aug-12 16:32N 59°18' E 005°36'0 0.0
2014-Aug-12 15:31N 59°18' E 005°36'0 0.0
2014-Aug-12 14:32N 59°18' E 005°36'0 0.2
2014-Aug-12 13:32N 59°18' E 005°37'0 0.1
2014-Aug-12 12:32N 59°18' E 005°36'0 0.0
2014-Aug-12 11:32N 59°18' E 005°36'0 0.1
2014-Aug-12 10:31N 59°18' E 005°36'0 0.0
2014-Aug-12 09:32N 59°18' E 005°36'0 0.0
2014-Aug-12 08:31N 59°18' E 005°36'0 0.1
2014-Aug-12 07:32N 59°18' E 005°36'0 0.0
2014-Aug-12 06:31N 59°18' E 005°36'0 0.1
2014-Aug-12 05:32N 59°18' E 005°36'0 0.0
2014-Aug-12 04:31N 59°18' E 005°36'0 0.0
2014-Aug-12 03:22N 59°18' E 005°36'0 0.0
2014-Aug-12 02:23N 59°18' E 005°36'0 0.0
2014-Aug-12 01:31N 59°18' E 005°36'0 0.0
2014-Aug-12 00:31N 59°18' E 005°36'0 0.1
2014-Aug-11 23:31N 59°18' E 005°36'0 0.0
2014-Aug-11 22:31N 59°18' E 005°37'0 0.1
2014-Aug-11 21:31N 59°18' E 005°36'0 0.0
2014-Aug-11 20:28N 59°18' E 005°36'0 0.0
2014-Aug-11 19:28N 59°18' E 005°36'0 0.0
2014-Aug-11 18:28N 59°18' E 005°36'0 0.0
2014-Aug-11 17:31N 59°18' E 005°36'0 0.0
2014-Aug-11 16:31N 59°18' E 005°36'0 0.1
2014-Aug-11 15:28N 59°18' E 005°36'0 0.0
2014-Aug-11 14:31N 59°18' E 005°36'0 0.0
2014-Aug-11 13:33N 59°18' E 005°36'0 0.0
2014-Aug-11 12:33N 59°18' E 005°36'0 0.1
2014-Aug-11 11:33N 59°18' E 005°36'5 5.2
2014-Aug-11 10:33N 59°13' E 005°33'3 2.8
2014-Aug-11 09:33N 59°10' E 005°32'1211.6
2014-Aug-11 08:33N 59°03' E 005°14'4 4.4
2014-Aug-11 07:33N 59°02' E 005°06'13 0.5
2014-Aug-10 05:08N 58°51' E 004°54'  

Dump ship's entire track history